Time;durP1;ratioP1;P1;durP2;ratioP2;P2;SDS_P1;SDS_P2;PMS_P1;PMS_P2;Temp;Humidity;BMP_temperature;BMP_pressure;BME280_temperature;BME280_humidity;BME280_pressure;Samples;Min_cycle;Max_cycle;Signal;HPM_P1;HPM_P2
2024/01/12 00:01:52;;;;;;;38.43;16.63;;;;;;;;;;10332199;28;20194;-66
2024/01/12 00:06:52;;;;;;;36.20;15.33;;;;;;;;;;10331950;28;20242;-69
2024/01/12 00:11:52;;;;;;;36.97;16.23;;;;;;;;;;10331864;28;20213;-69
2024/01/12 00:16:52;;;;;;;39.27;16.23;;;;;;;;;;10332046;28;20206;-69
2024/01/12 00:21:54;;;;;;;32.37;14.77;;;;;;;;;;10331314;28;20190;-68
2024/01/12 00:26:54;;;;;;;34.23;15.53;;;;;;;;;;10331377;28;20291;-68
2024/01/12 00:31:55;;;;;;;34.93;15.70;;;;;;;;;;10331375;28;20247;-69
2024/01/12 00:36:55;;;;;;;33.20;15.00;;;;;;;;;;10330701;28;20340;-68
2024/01/12 00:41:55;;;;;;;31.73;15.33;;;;;;;;;;10330642;28;20197;-68
2024/01/12 00:46:55;;;;;;;33.97;16.03;;;;;;;;;;10330405;28;20218;-68
2024/01/12 00:51:55;;;;;;;29.33;14.23;;;;;;;;;;10329691;28;20736;-69
2024/01/12 00:56:56;;;;;;;28.03;13.80;;;;;;;;;;10330219;28;20252;-68
2024/01/12 01:01:58;;;;;;;27.57;13.43;;;;;;;;;;10330035;28;20202;-68
2024/01/12 01:06:58;;;;;;;26.27;12.50;;;;;;;;;;10326266;28;20688;-68
2024/01/12 01:11:58;;;;;;;25.03;13.67;;;;;;;;;;10329767;28;20193;-68
2024/01/12 01:16:58;;;;;;;27.60;13.57;;;;;;;;;;10328931;28;20719;-68
2024/01/12 01:21:58;;;;;;;24.67;11.13;;;;;;;;;;10329433;28;20245;-68
2024/01/12 01:26:58;;;;;;;24.13;11.57;;;;;;;;;;10328901;28;20220;-68
2024/01/12 01:31:59;;;;;;;20.83;11.20;;;;;;;;;;10329159;28;20743;-68
2024/01/12 01:37:02;;;;;;;21.23;11.30;;;;;;;;;;10328394;28;20214;-68
2024/01/12 01:42:03;;;;;;;22.50;10.60;;;;;;;;;;10328646;28;20202;-68
2024/01/12 01:47:03;;;;;;;16.50;9.50;;;;;;;;;;10328290;28;20683;-68
2024/01/12 01:52:04;;;;;;;21.00;10.17;;;;;;;;;;10328347;28;20198;-68
2024/01/12 01:57:04;;;;;;;15.63;8.57;;;;;;;;;;10327806;28;20275;-68
2024/01/12 02:02:04;;;;;;;17.80;9.43;;;;;;;;;;10327622;28;20254;-68
2024/01/12 02:07:05;;;;;;;20.00;9.13;;;;;;;;;;10327340;28;20520;-68
2024/01/12 02:12:05;;;;;;;15.30;8.77;;;;;;;;;;10328067;28;20849;-69
2024/01/12 02:17:06;;;;;;;13.33;7.73;;;;;;;;;;10326971;28;20222;-68
2024/01/12 02:22:06;;;;;;;15.33;8.20;;;;;;;;;;10327599;28;20225;-68
2024/01/12 02:27:06;;;;;;;14.97;8.20;;;;;;;;;;10327122;28;20217;-69
2024/01/12 02:32:06;;;;;;;13.33;7.63;;;;;;;;;;10326902;28;20202;-69
2024/01/12 02:37:06;;;;;;;17.60;8.57;;;;;;;;;;10327239;28;20301;-68
2024/01/12 02:42:07;;;;;;;14.30;8.03;;;;;;;;;;10326862;28;20225;-68
2024/01/12 02:47:07;;;;;;;13.77;7.63;;;;;;;;;;10326987;28;20225;-68
2024/01/12 02:52:08;;;;;;;13.20;6.87;;;;;;;;;;10326363;28;20720;-68
2024/01/12 02:57:08;;;;;;;12.40;6.70;;;;;;;;;;10325720;28;20209;-68
2024/01/12 03:02:08;;;;;;;13.20;7.63;;;;;;;;;;10326839;28;20613;-68
2024/01/12 03:07:08;;;;;;;16.33;7.33;;;;;;;;;;10326101;28;20234;-68
2024/01/12 03:12:08;;;;;;;16.33;7.80;;;;;;;;;;10327744;28;20193;-69
2024/01/12 03:17:10;;;;;;;20.37;8.77;;;;;;;;;;10333877;28;20241;-68
2024/01/12 03:22:10;;;;;;;15.63;8.33;;;;;;;;;;10334255;28;20217;-68
2024/01/12 03:27:10;;;;;;;22.20;8.30;;;;;;;;;;10333508;28;20213;-68
2024/01/12 03:32:10;;;;;;;18.93;9.30;;;;;;;;;;10332209;28;20194;-68
2024/01/12 03:37:11;;;;;;;18.50;8.53;;;;;;;;;;10333316;28;20209;-69
2024/01/12 03:42:11;;;;;;;16.57;8.63;;;;;;;;;;10333158;28;20660;-68
2024/01/12 03:47:11;;;;;;;18.17;9.00;;;;;;;;;;10332970;28;20218;-68
2024/01/12 03:52:11;;;;;;;24.53;10.57;;;;;;;;;;10331573;28;20198;-68
2024/01/12 03:57:11;;;;;;;26.87;11.40;;;;;;;;;;10332432;28;20209;-68
2024/01/12 04:02:12;;;;;;;19.43;10.73;;;;;;;;;;10332663;28;20495;-68
2024/01/12 04:07:12;;;;;;;19.57;9.20;;;;;;;;;;10330166;28;20247;-68
2024/01/12 04:12:12;;;;;;;17.27;9.53;;;;;;;;;;10331760;28;20216;-69
2024/01/12 04:17:12;;;;;;;17.40;9.37;;;;;;;;;;10332328;28;20830;-67
2024/01/12 04:22:13;;;;;;;17.20;9.87;;;;;;;;;;10332502;28;20198;-69
2024/01/12 04:27:13;;;;;;;14.87;7.87;;;;;;;;;;10330245;28;20591;-69
2024/01/12 04:32:13;;;;;;;20.33;8.97;;;;;;;;;;10331364;28;20190;-69
2024/01/12 04:37:13;;;;;;;16.13;7.40;;;;;;;;;;10331258;28;20309;-69
2024/01/12 04:42:14;;;;;;;15.77;8.27;;;;;;;;;;10330972;28;20537;-68
2024/01/12 04:47:14;;;;;;;15.20;8.00;;;;;;;;;;10329125;28;20255;-69
2024/01/12 04:52:14;;;;;;;15.97;8.60;;;;;;;;;;10330203;28;20288;-68
2024/01/12 04:57:14;;;;;;;17.17;8.87;;;;;;;;;;10330016;28;20209;-68
2024/01/12 05:02:14;;;;;;;16.87;8.23;;;;;;;;;;10329808;28;20185;-68
2024/01/12 05:07:14;;;;;;;11.93;7.03;;;;;;;;;;10403514;22;20283;-68
2024/01/12 05:12:15;;;;;;;11.97;6.70;;;;;;;;;;10410038;28;20185;-68
2024/01/12 05:17:15;;;;;;;10.43;5.88;;;;;;;;;;10388530;28;20599;-68
2024/01/12 05:22:15;;;;;;;11.50;6.30;;;;;;;;;;10377260;28;20197;-68
2024/01/12 05:27:15;;;;;;;10.13;5.80;;;;;;;;;;10375320;28;20221;-68
2024/01/12 05:32:15;;;;;;;10.80;5.73;;;;;;;;;;10376104;28;20535;-68
2024/01/12 05:37:16;;;;;;;9.57;5.73;;;;;;;;;;10375620;28;20236;-67
2024/01/12 05:42:16;;;;;;;8.13;5.03;;;;;;;;;;10376923;28;20199;-67
2024/01/12 05:47:16;;;;;;;10.60;5.10;;;;;;;;;;10376469;28;20262;-68
2024/01/12 05:52:16;;;;;;;7.47;4.60;;;;;;;;;;10376592;28;20615;-68
2024/01/12 05:57:17;;;;;;;7.97;4.90;;;;;;;;;;10375941;28;20212;-68
2024/01/12 06:02:18;;;;;;;9.43;5.47;;;;;;;;;;10376638;28;20236;-68
2024/01/12 06:07:18;;;;;;;9.73;5.77;;;;;;;;;;10375494;28;20881;-68
2024/01/12 06:12:18;;;;;;;9.33;5.50;;;;;;;;;;10375980;28;20604;-68
2024/01/12 06:17:18;;;;;;;12.00;6.47;;;;;;;;;;10375489;28;20237;-68
2024/01/12 06:22:18;;;;;;;12.27;6.70;;;;;;;;;;10371919;28;20189;-69
2024/01/12 06:27:19;;;;;;;13.17;6.90;;;;;;;;;;10373922;28;20229;-69
2024/01/12 06:32:19;;;;;;;12.37;6.40;;;;;;;;;;10374280;28;20193;-68
2024/01/12 06:37:19;;;;;;;10.03;5.83;;;;;;;;;;10376904;28;20236;-69
2024/01/12 06:42:19;;;;;;;14.30;7.23;;;;;;;;;;10372085;28;20188;-68
2024/01/12 06:47:19;;;;;;;14.83;8.70;;;;;;;;;;10369902;28;20213;-68
2024/01/12 06:52:19;;;;;;;17.87;8.40;;;;;;;;;;10375847;28;20739;-68
2024/01/12 06:57:20;;;;;;;15.83;8.93;;;;;;;;;;10376242;28;20228;-68
2024/01/12 07:02:20;;;;;;;19.30;9.80;;;;;;;;;;10378955;28;20201;-68
2024/01/12 07:07:20;;;;;;;19.20;9.60;;;;;;;;;;10380143;28;20237;-69
2024/01/12 07:12:21;;;;;;;14.73;8.27;;;;;;;;;;10379643;28;20188;-68
2024/01/12 07:17:21;;;;;;;17.07;9.23;;;;;;;;;;10381013;28;20213;-68
2024/01/12 07:22:21;;;;;;;17.13;10.13;;;;;;;;;;10383280;28;20498;-68
2024/01/12 07:27:21;;;;;;;21.93;9.23;;;;;;;;;;10377354;28;20229;-68
2024/01/12 07:32:21;;;;;;;12.67;6.97;;;;;;;;;;10383353;28;20193;-68
2024/01/12 07:37:22;;;;;;;19.57;7.70;;;;;;;;;;10381476;28;20235;-68
2024/01/12 07:42:22;;;;;;;11.93;6.37;;;;;;;;;;10381151;28;20181;-68
2024/01/12 07:47:22;;;;;;;9.30;5.40;;;;;;;;;;10381075;28;20717;-68
2024/01/12 07:52:22;;;;;;;11.27;6.70;;;;;;;;;;10380785;28;20443;-68
2024/01/12 07:57:22;;;;;;;11.33;6.37;;;;;;;;;;10381506;28;20579;-68
2024/01/12 08:02:23;;;;;;;9.37;5.70;;;;;;;;;;10376510;28;20267;-68
2024/01/12 08:07:23;;;;;;;12.70;6.80;;;;;;;;;;10377277;28;20233;-68
2024/01/12 08:12:23;;;;;;;10.23;6.00;;;;;;;;;;10377090;28;20208;-68
2024/01/12 08:17:24;;;;;;;14.27;7.07;;;;;;;;;;10374647;28;20215;-69
2024/01/12 08:22:24;;;;;;;12.73;7.23;;;;;;;;;;10375547;28;20186;-68
2024/01/12 08:27:24;;;;;;;17.60;8.33;;;;;;;;;;10369488;28;20634;-68
2024/01/12 08:32:24;;;;;;;16.70;8.27;;;;;;;;;;10369193;28;20193;-68
2024/01/12 08:37:25;;;;;;;18.33;9.27;;;;;;;;;;10378432;28;20213;-67
2024/01/12 08:42:25;;;;;;;23.87;10.83;;;;;;;;;;10374767;28;20192;-68
2024/01/12 08:47:25;;;;;;;26.00;10.83;;;;;;;;;;10374266;28;20279;-68
2024/01/12 08:52:26;;;;;;;21.50;9.83;;;;;;;;;;10368996;28;20196;-69
2024/01/12 08:57:26;;;;;;;24.67;11.30;;;;;;;;;;10367131;28;20221;-68
2024/01/12 09:02:26;;;;;;;24.57;11.10;;;;;;;;;;10372685;28;20245;-68
2024/01/12 09:07:26;;;;;;;22.63;11.53;;;;;;;;;;10374671;28;20720;-69
2024/01/12 09:12:26;;;;;;;21.77;10.03;;;;;;;;;;10367409;28;20196;-69
2024/01/12 09:17:26;;;;;;;19.20;9.67;;;;;;;;;;10374864;28;20202;-69
2024/01/12 09:22:27;;;;;;;19.37;9.57;;;;;;;;;;10374236;28;20617;-68
2024/01/12 09:27:27;;;;;;;15.53;8.57;;;;;;;;;;10375693;28;20307;-68
2024/01/12 09:32:27;;;;;;;21.00;10.60;;;;;;;;;;10370539;28;20212;-68
2024/01/12 09:37:27;;;;;;;23.93;10.80;;;;;;;;;;10376988;28;20221;-68
2024/01/12 09:42:30;;;;;;;19.07;9.03;;;;;;;;;;10372422;28;20679;-68
2024/01/12 09:47:31;;;;;;;15.90;8.13;;;;;;;;;;10379430;28;20217;-68
2024/01/12 09:52:31;;;;;;;23.13;10.33;;;;;;;;;;10367138;28;20193;-69
2024/01/12 09:57:33;;;;;;;17.70;8.10;;;;;;;;;;10375967;28;20216;-69
2024/01/12 10:02:33;;;;;;;14.77;7.70;;;;;;;;;;10373045;28;20444;-68
2024/01/12 10:07:33;;;;;;;15.83;8.30;;;;;;;;;;10372015;28;20232;-68
2024/01/12 10:12:33;;;;;;;16.47;9.13;;;;;;;;;;10372860;28;20620;-68
2024/01/12 10:17:34;;;;;;;17.17;8.52;;;;;;;;;;10372129;28;20216;-68
2024/01/12 10:22:34;;;;;;;21.23;10.13;;;;;;;;;;10370817;28;20204;-68
2024/01/12 10:27:35;;;;;;;20.77;10.20;;;;;;;;;;10370973;28;20237;-70
2024/01/12 10:32:35;;;;;;;19.27;9.27;;;;;;;;;;10373779;28;20594;-69
2024/01/12 10:37:36;;;;;;;20.63;9.13;;;;;;;;;;10371317;28;20213;-68
2024/01/12 10:42:38;;;;;;;21.33;10.13;;;;;;;;;;10371961;28;20197;-68
2024/01/12 10:47:41;;;;;;;24.83;10.57;;;;;;;;;;10370750;28;20704;-68
2024/01/12 10:52:55;;;;;;;22.37;10.73;;;;;;;;;;10375338;28;20190;-68
2024/01/12 10:57:55;;;;;;;19.00;8.90;;;;;;;;;;10371867;28;20215;-68
2024/01/12 11:02:56;;;;;;;14.23;7.87;;;;;;;;;;10372536;28;20759;-67
2024/01/12 11:07:57;;;;;;;21.37;9.13;;;;;;;;;;10409048;23;20625;-69
2024/01/12 11:12:57;;;;;;;21.93;9.33;;;;;;;;;;10404684;28;20189;-69
2024/01/12 11:17:58;;;;;;;19.27;9.60;;;;;;;;;;10371404;28;20619;-69
2024/01/12 11:22:58;;;;;;;17.40;8.77;;;;;;;;;;10362123;28;20308;-69
2024/01/12 11:28:00;;;;;;;15.00;8.63;;;;;;;;;;10361748;28;20738;-69
2024/01/12 11:33:01;;;;;;;19.97;9.40;;;;;;;;;;10365005;28;20185;-69
2024/01/12 11:38:10;;;;;;;20.80;9.37;;;;;;;;;;10364718;28;20910;-69
2024/01/12 11:43:14;;;;;;;19.80;8.90;;;;;;;;;;10369491;28;20289;-70
2024/01/12 11:48:15;;;;;;;19.13;9.10;;;;;;;;;;10369814;28;20213;-69
2024/01/12 11:53:15;;;;;;;18.17;8.30;;;;;;;;;;10370548;28;20997;-68
2024/01/12 11:58:15;;;;;;;19.97;9.30;;;;;;;;;;10368035;28;20236;-69
2024/01/12 12:03:15;;;;;;;19.30;9.90;;;;;;;;;;10369999;28;20213;-69
2024/01/12 12:08:16;;;;;;;24.03;10.10;;;;;;;;;;10370227;28;20233;-68
2024/01/12 12:13:16;;;;;;;23.13;10.03;;;;;;;;;;10364296;28;20214;-69
2024/01/12 12:18:18;;;;;;;19.53;7.97;;;;;;;;;;10369961;28;20263;-69
2024/01/12 12:23:18;;;;;;;21.53;9.57;;;;;;;;;;10368744;28;20690;-69
2024/01/12 12:28:18;;;;;;;16.77;8.43;;;;;;;;;;10370087;28;20281;-69
2024/01/12 12:33:22;;;;;;;21.27;9.27;;;;;;;;;;10370032;28;20790;-69
2024/01/12 12:38:22;;;;;;;21.17;10.10;;;;;;;;;;10368871;28;20308;-69
2024/01/12 12:43:22;;;;;;;17.07;8.87;;;;;;;;;;10363142;28;20201;-69
2024/01/12 12:48:26;;;;;;;22.70;9.80;;;;;;;;;;10368698;28;20223;-69
2024/01/12 12:53:26;;;;;;;20.83;11.53;;;;;;;;;;10368391;28;20201;-69
2024/01/12 12:58:26;;;;;;;23.67;11.53;;;;;;;;;;10367906;28;20731;-69
2024/01/12 13:03:27;;;;;;;22.47;10.53;;;;;;;;;;10366970;28;20193;-69
2024/01/12 13:08:27;;;;;;;20.30;10.87;;;;;;;;;;10367737;28;20605;-69
2024/01/12 13:13:27;;;;;;;23.17;11.47;;;;;;;;;;10359358;28;20216;-69
2024/01/12 13:18:27;;;;;;;23.13;12.23;;;;;;;;;;10367107;28;20231;-69
2024/01/12 13:23:27;;;;;;;28.63;12.73;;;;;;;;;;10368409;28;20448;-69
2024/01/12 13:28:28;;;;;;;21.97;9.63;;;;;;;;;;10366993;28;20229;-69
2024/01/12 13:33:28;;;;;;;19.70;10.60;;;;;;;;;;10367645;28;20456;-69
2024/01/12 13:38:28;;;;;;;17.47;8.87;;;;;;;;;;10365844;28;20464;-69
2024/01/12 13:43:29;;;;;;;15.27;8.77;;;;;;;;;;10366783;28;20201;-69
2024/01/12 13:48:29;;;;;;;17.03;9.80;;;;;;;;;;10363553;28;20217;-68
2024/01/12 13:53:30;;;;;;;15.83;9.23;;;;;;;;;;10363456;28;20193;-68
2024/01/12 13:58:30;;;;;;;15.87;9.47;;;;;;;;;;10366021;28;20307;-68
2024/01/12 14:03:31;;;;;;;19.00;9.77;;;;;;;;;;10366714;28;20201;-69
2024/01/12 14:08:32;;;;;;;17.53;9.97;;;;;;;;;;10366057;28;20238;-69
2024/01/12 14:13:32;;;;;;;21.30;11.77;;;;;;;;;;10364637;28;20196;-69
2024/01/12 14:18:32;;;;;;;22.93;11.43;;;;;;;;;;10363221;28;20221;-68
2024/01/12 14:23:32;;;;;;;18.77;10.17;;;;;;;;;;10365853;28;20231;-69
2024/01/12 14:28:33;;;;;;;19.83;10.03;;;;;;;;;;10365265;28;20221;-68
2024/01/12 14:33:34;;;;;;;18.07;9.87;;;;;;;;;;10364501;28;20201;-69
2024/01/12 14:38:34;;;;;;;20.63;10.67;;;;;;;;;;10365452;28;20221;-69
2024/01/12 14:43:34;;;;;;;20.67;10.67;;;;;;;;;;10365503;28;20200;-69
2024/01/12 14:48:34;;;;;;;25.83;13.47;;;;;;;;;;10363763;28;20229;-68
2024/01/12 14:53:38;;;;;;;24.13;12.73;;;;;;;;;;10360534;28;20335;-69
2024/01/12 14:58:40;;;;;;;19.67;11.53;;;;;;;;;;10365078;28;20221;-69
2024/01/12 15:03:40;;;;;;;24.40;12.43;;;;;;;;;;10364454;28;20198;-68
2024/01/12 15:08:40;;;;;;;28.97;14.00;;;;;;;;;;10366927;28;20241;-68
2024/01/12 15:13:41;;;;;;;33.63;14.40;;;;;;;;;;10372488;28;20197;-69
2024/01/12 15:18:41;;;;;;;27.73;14.93;;;;;;;;;;10365740;28;20575;-69
2024/01/12 15:23:41;;;;;;;32.40;13.97;;;;;;;;;;10361539;28;20186;-69
2024/01/12 15:28:41;;;;;;;35.97;15.77;;;;;;;;;;10363142;28;20229;-69
2024/01/12 15:33:43;;;;;;;27.10;13.63;;;;;;;;;;10361595;28;20239;-69
2024/01/12 15:38:43;;;;;;;24.60;13.23;;;;;;;;;;10359553;28;20304;-69
2024/01/12 15:43:43;;;;;;;29.17;13.83;;;;;;;;;;10360494;28;20652;-69
2024/01/12 15:48:43;;;;;;;29.50;12.53;;;;;;;;;;10360818;28;20308;-69
2024/01/12 15:53:44;;;;;;;28.27;13.30;;;;;;;;;;10359551;28;20200;-69
2024/01/12 15:58:44;;;;;;;21.33;10.47;;;;;;;;;;10359248;28;20283;-69
2024/01/12 16:03:45;;;;;;;22.23;10.47;;;;;;;;;;10366508;28;20440;-69
2024/01/12 16:08:45;;;;;;;16.47;8.90;;;;;;;;;;10366466;28;20651;-69
2024/01/12 16:13:45;;;;;;;17.43;7.90;;;;;;;;;;10370635;28;20194;-69
2024/01/12 16:18:46;;;;;;;16.27;8.50;;;;;;;;;;10369912;28;20640;-69
2024/01/12 16:23:46;;;;;;;16.07;7.80;;;;;;;;;;10368802;28;20181;-69
2024/01/12 16:28:46;;;;;;;18.17;8.50;;;;;;;;;;10366351;28;20691;-69
2024/01/12 16:33:46;;;;;;;38.03;19.07;;;;;;;;;;10369821;28;20194;-69
2024/01/12 16:38:46;;;;;;;23.30;11.13;;;;;;;;;;10370015;28;20205;-69
2024/01/12 16:43:47;;;;;;;21.77;12.07;;;;;;;;;;10368328;28;20293;-69
2024/01/12 16:48:47;;;;;;;25.93;12.17;;;;;;;;;;10369154;28;20217;-69
2024/01/12 16:53:47;;;;;;;20.73;10.33;;;;;;;;;;10370164;28;20224;-69
2024/01/12 16:58:47;;;;;;;18.77;10.30;;;;;;;;;;10366394;28;20309;-69
2024/01/12 17:03:47;;;;;;;16.63;9.27;;;;;;;;;;10368031;28;20292;-69
2024/01/12 17:08:47;;;;;;;17.40;9.17;;;;;;;;;;10376533;23;20266;-68
2024/01/12 17:13:48;;;;;;;21.37;10.70;;;;;;;;;;10366276;28;20193;-69
2024/01/12 17:18:48;;;;;;;21.53;11.67;;;;;;;;;;10367179;28;20587;-68
2024/01/12 17:23:48;;;;;;;14.93;8.77;;;;;;;;;;10369325;28;20197;-68
2024/01/12 17:28:48;;;;;;;23.33;12.60;;;;;;;;;;10368679;28;20224;-68
2024/01/12 17:33:49;;;;;;;22.48;11.05;;;;;;;;;;10369246;28;20243;-68
2024/01/12 17:38:49;;;;;;;23.37;11.67;;;;;;;;;;10369795;28;20816;-68
2024/01/12 17:43:49;;;;;;;26.00;12.03;;;;;;;;;;10368067;28;20763;-68
2024/01/12 17:48:50;;;;;;;29.73;13.93;;;;;;;;;;10369071;28;20248;-68
2024/01/12 17:53:50;;;;;;;22.97;10.40;;;;;;;;;;10369103;28;20931;-68
2024/01/12 17:58:50;;;;;;;23.13;12.70;;;;;;;;;;10368861;28;20229;-68
2024/01/12 18:03:50;;;;;;;17.37;8.83;;;;;;;;;;10367196;28;20201;-68
2024/01/12 18:08:52;;;;;;;13.30;8.47;;;;;;;;;;10368284;28;20286;-68
2024/01/12 18:13:52;;;;;;;15.67;8.47;;;;;;;;;;10368089;28;20193;-68
2024/01/12 18:18:52;;;;;;;15.03;8.57;;;;;;;;;;10368171;28;20213;-68
2024/01/12 18:23:52;;;;;;;15.37;9.47;;;;;;;;;;10366511;28;20200;-68
2024/01/12 18:28:52;;;;;;;15.30;8.67;;;;;;;;;;10367600;28;20725;-69
2024/01/12 18:33:53;;;;;;;12.13;7.60;;;;;;;;;;10368394;28;20652;-68
2024/01/12 18:38:53;;;;;;;15.17;8.67;;;;;;;;;;10367484;28;20201;-68
2024/01/12 18:43:53;;;;;;;14.20;8.20;;;;;;;;;;10371245;28;20554;-68
2024/01/12 18:48:53;;;;;;;17.90;8.93;;;;;;;;;;10375506;28;20232;-68
2024/01/12 18:53:54;;;;;;;14.80;9.53;;;;;;;;;;10375684;28;20231;-68
2024/01/12 18:58:54;;;;;;;12.83;8.20;;;;;;;;;;10374392;28;20649;-68
2024/01/12 19:03:54;;;;;;;12.60;8.13;;;;;;;;;;10374361;28;20596;-68
2024/01/12 19:08:54;;;;;;;15.17;8.80;;;;;;;;;;10374796;28;20241;-69
2024/01/12 19:13:56;;;;;;;13.20;9.20;;;;;;;;;;10374643;28;20193;-68
2024/01/12 19:18:56;;;;;;;36.13;17.80;;;;;;;;;;10373082;28;20202;-68
2024/01/12 19:23:56;;;;;;;15.30;9.77;;;;;;;;;;10374510;28;20201;-68
2024/01/12 19:28:58;;;;;;;14.50;7.70;;;;;;;;;;10373893;28;20220;-68
2024/01/12 19:33:59;;;;;;;17.60;10.00;;;;;;;;;;10374411;28;20185;-69
2024/01/12 19:38:59;;;;;;;15.77;10.53;;;;;;;;;;10369789;28;20216;-68
2024/01/12 19:43:59;;;;;;;12.17;8.77;;;;;;;;;;10373983;28;20196;-68
2024/01/12 19:49:00;;;;;;;14.50;9.27;;;;;;;;;;10373345;28;20217;-68
2024/01/12 19:54:00;;;;;;;16.97;10.90;;;;;;;;;;10372601;28;20644;-68
2024/01/12 19:59:04;;;;;;;17.57;12.10;;;;;;;;;;10371351;28;20221;-68
2024/01/12 20:04:05;;;;;;;13.57;9.60;;;;;;;;;;10372686;28;20189;-68
2024/01/12 20:09:05;;;;;;;17.23;11.20;;;;;;;;;;10372557;28;20236;-69
2024/01/12 20:14:06;;;;;;;15.50;9.27;;;;;;;;;;10372566;28;20441;-68
2024/01/12 20:19:06;;;;;;;15.93;10.50;;;;;;;;;;10370749;28;20338;-69
2024/01/12 20:24:06;;;;;;;17.37;9.57;;;;;;;;;;10372127;28;20197;-68
2024/01/12 20:29:06;;;;;;;15.30;10.33;;;;;;;;;;10372072;28;20588;-68
2024/01/12 20:34:07;;;;;;;17.47;11.47;;;;;;;;;;10370745;28;20335;-69
2024/01/12 20:39:07;;;;;;;14.47;9.27;;;;;;;;;;10375176;28;20224;-68
2024/01/12 20:44:07;;;;;;;21.10;13.13;;;;;;;;;;10371831;28;20263;-68
2024/01/12 20:49:08;;;;;;;19.70;12.17;;;;;;;;;;10371414;28;20225;-68
2024/01/12 20:54:09;;;;;;;24.47;13.87;;;;;;;;;;10369902;28;20189;-68
2024/01/12 20:59:09;;;;;;;19.53;10.83;;;;;;;;;;10371415;28;20205;-69
2024/01/12 21:04:09;;;;;;;21.67;12.20;;;;;;;;;;10371246;28;20236;-69
2024/01/12 21:09:14;;;;;;;19.70;11.50;;;;;;;;;;10369282;28;21539;-68
2024/01/12 21:14:14;;;;;;;17.60;10.67;;;;;;;;;;10369063;28;20194;-69
2024/01/12 21:19:14;;;;;;;17.97;10.27;;;;;;;;;;10370583;28;20652;-68
2024/01/12 21:24:15;;;;;;;16.40;11.57;;;;;;;;;;10370184;28;20224;-68
2024/01/12 21:29:15;;;;;;;16.07;10.20;;;;;;;;;;10370083;28;20217;-68
2024/01/12 21:34:15;;;;;;;12.53;8.47;;;;;;;;;;10368148;28;20193;-69
2024/01/12 21:39:16;;;;;;;12.97;8.63;;;;;;;;;;10369862;28;20208;-68
2024/01/12 21:44:16;;;;;;;13.47;8.57;;;;;;;;;;10369387;28;20224;-69
2024/01/12 21:49:16;;;;;;;12.83;9.03;;;;;;;;;;10368864;28;20864;-69
2024/01/12 21:54:16;;;;;;;12.37;8.50;;;;;;;;;;10367494;28;20284;-68
2024/01/12 21:59:16;;;;;;;11.80;8.93;;;;;;;;;;10368748;28;20197;-68
2024/01/12 22:04:16;;;;;;;11.30;7.37;;;;;;;;;;10368705;28;20189;-68
2024/01/12 22:09:17;;;;;;;15.47;10.13;;;;;;;;;;10365964;28;20843;-69
2024/01/12 22:14:17;;;;;;;13.43;9.10;;;;;;;;;;10368406;28;20193;-69
2024/01/12 22:19:17;;;;;;;14.50;10.37;;;;;;;;;;10367565;28;20224;-68
2024/01/12 22:24:17;;;;;;;13.43;8.80;;;;;;;;;;10366457;28;20197;-68
2024/01/12 22:29:17;;;;;;;12.10;8.00;;;;;;;;;;10366182;28;20240;-69
2024/01/12 22:34:17;;;;;;;13.03;9.13;;;;;;;;;;10367887;28;20193;-69
2024/01/12 22:39:18;;;;;;;15.63;9.53;;;;;;;;;;10368466;28;20263;-69
2024/01/12 22:44:21;;;;;;;14.30;10.07;;;;;;;;;;10367604;28;20272;-68
2024/01/12 22:49:21;;;;;;;17.87;11.50;;;;;;;;;;10366101;28;20275;-68
2024/01/12 22:54:22;;;;;;;15.50;10.03;;;;;;;;;;10367585;28;20217;-69
2024/01/12 22:59:22;;;;;;;15.77;10.67;;;;;;;;;;10367357;28;20547;-68
2024/01/12 23:04:22;;;;;;;20.33;11.50;;;;;;;;;;10367415;28;20189;-69
2024/01/12 23:09:23;;;;;;;16.27;9.93;;;;;;;;;;10365415;28;20237;-68
2024/01/12 23:14:23;;;;;;;15.10;8.73;;;;;;;;;;10360222;28;20627;-69
2024/01/12 23:19:23;;;;;;;15.40;9.80;;;;;;;;;;10366708;28;20292;-68
2024/01/12 23:24:24;;;;;;;14.90;10.53;;;;;;;;;;10363770;28;20198;-69
2024/01/12 23:29:24;;;;;;;15.83;9.90;;;;;;;;;;10367869;28;20255;-69
2024/01/12 23:34:24;;;;;;;15.80;9.73;;;;;;;;;;10374517;28;20296;-69
2024/01/12 23:39:24;;;;;;;14.67;8.83;;;;;;;;;;10373934;28;20201;-69
2024/01/12 23:44:24;;;;;;;16.67;10.60;;;;;;;;;;10371307;28;20186;-69
2024/01/12 23:49:24;;;;;;;17.73;9.83;;;;;;;;;;10373821;28;20317;-68
2024/01/12 23:54:25;;;;;;;17.03;9.90;;;;;;;;;;10373765;28;20730;-69
2024/01/12 23:59:25;;;;;;;17.17;9.90;;;;;;;;;;10373712;28;20557;-68
